createdAt,value
2018-05-03T00:00:43.926Z,95323.86
2018-05-03T00:03:11.593Z,95320.89
2018-05-03T00:05:39.114Z,95317.31
2018-05-03T00:08:06.609Z,95325.71
2018-05-03T00:10:34.082Z,95321.98
2018-05-03T00:13:01.605Z,95322.64
2018-05-03T00:15:29.168Z,95332.56
2018-05-03T00:17:56.638Z,95333.50
2018-05-03T00:20:24.127Z,95337.97
2018-05-03T00:22:51.629Z,95334.49
2018-05-03T00:25:19.128Z,95325.30
2018-05-03T00:27:46.623Z,95321.91
2018-05-03T00:30:14.109Z,95315.67
2018-05-03T00:32:41.619Z,95330.78
2018-05-03T00:35:09.141Z,95320.92
2018-05-03T00:37:37.391Z,95317.34
2018-05-03T00:40:04.860Z,95302.20
2018-05-03T00:42:32.425Z,95306.29
2018-05-03T00:44:59.906Z,95303.30
2018-05-03T00:47:27.391Z,95304.81
2018-05-03T00:49:54.882Z,95296.30
2018-05-03T00:52:22.412Z,95289.42
2018-05-03T00:54:50.932Z,95282.20
2018-05-03T00:57:18.406Z,95267.92
2018-05-03T00:59:45.902Z,95270.28
2018-05-03T01:02:13.430Z,95268.08
2018-05-03T01:04:40.935Z,95264.33
2018-05-03T01:07:08.480Z,95270.69
2018-05-03T01:09:36.102Z,95266.63
2018-05-03T01:12:03.673Z,95251.22
2018-05-03T01:14:31.240Z,95256.87
2018-05-03T01:16:58.782Z,95253.11
2018-05-03T01:19:26.325Z,95252.46
2018-05-03T01:21:53.900Z,95264.47
2018-05-03T01:24:21.418Z,95286.35
2018-05-03T01:26:48.946Z,95299.11
2018-05-03T01:29:16.488Z,95306.33
2018-05-03T01:31:44.010Z,95304.85
2018-05-03T01:34:11.514Z,95306.87
2018-05-03T01:36:39.003Z,95312.57
2018-05-03T01:39:06.536Z,95313.24
2018-05-03T01:41:34.066Z,95304.84
2018-05-03T01:44:01.574Z,95321.02
2018-05-03T01:46:29.492Z,95323.48
2018-05-03T01:48:57.070Z,95322.20
2018-05-03T01:51:24.735Z,95327.34
2018-05-03T01:53:52.253Z,95330.64
2018-05-03T01:56:19.815Z,95323.78
2018-05-03T01:58:47.388Z,95332.70
2018-05-03T02:01:15.065Z,95331.58
2018-05-03T02:03:42.591Z,95324.08
2018-05-03T02:06:10.156Z,95317.90
2018-05-03T02:08:37.662Z,95318.78
2018-05-03T02:11:05.157Z,95305.16
2018-05-03T02:13:32.653Z,95313.81
2018-05-03T02:16:00.241Z,95324.82
2018-05-03T02:18:27.835Z,95317.13
2018-05-03T02:20:55.381Z,95324.61
2018-05-03T02:23:22.999Z,95309.52
2018-05-03T02:25:50.490Z,95319.73
2018-05-03T02:28:18.174Z,95319.59
2018-05-03T02:30:45.681Z,95328.78
2018-05-03T02:33:13.161Z,95322.79
2018-05-03T02:35:40.642Z,95326.42
2018-05-03T02:38:08.146Z,95327.72
2018-05-03T02:40:35.668Z,95324.64
2018-05-03T02:43:03.203Z,95322.55
2018-05-03T02:45:30.794Z,95330.62
2018-05-03T02:47:58.359Z,95328.44
2018-05-03T02:50:25.893Z,95334.08
2018-05-03T02:52:53.446Z,95333.09
2018-05-03T02:55:21.008Z,95338.27
2018-05-03T02:58:06.005Z,95343.53
2018-05-03T03:03:41.181Z,95347.20
2018-05-03T03:06:20.341Z,95355.52
2018-05-03T03:15:23.861Z,95354.51
2018-05-03T03:18:09.012Z,95361.66
2018-05-03T03:20:54.781Z,95359.75
2018-05-03T03:23:39.702Z,95357.80
2018-05-03T03:29:32.855Z,95367.00
2018-05-03T03:32:15.209Z,95370.41
2018-05-03T03:34:42.839Z,95363.16
2018-05-03T03:37:22.161Z,95370.22
2018-05-03T03:40:07.002Z,95366.92
2018-05-03T03:45:42.666Z,95362.08
2018-05-03T03:48:10.206Z,95353.63
2018-05-03T03:50:37.739Z,95358.07
2018-05-03T03:53:05.382Z,95357.90
2018-05-03T03:55:32.954Z,95361.77
2018-05-03T03:58:00.521Z,95370.06
2018-05-03T04:00:28.102Z,95369.20
2018-05-03T04:02:55.684Z,95380.30
2018-05-03T04:05:23.233Z,95377.02
2018-05-03T04:07:50.765Z,95380.39
2018-05-03T04:10:18.256Z,95384.59
2018-05-03T04:12:45.821Z,95384.75
2018-05-03T04:15:13.800Z,95382.56
2018-05-03T04:17:53.075Z,95385.30
2018-05-03T04:20:40.081Z,95380.05
2018-05-03T04:26:07.687Z,95380.55
2018-05-03T04:28:35.268Z,95378.14
2018-05-03T04:31:02.855Z,95383.86
2018-05-03T04:33:30.459Z,95400.23
2018-05-03T04:35:58.086Z,95394.58
2018-05-03T04:38:25.643Z,95400.23
2018-05-03T04:40:53.243Z,95404.49
2018-05-03T04:43:20.851Z,95413.75
2018-05-03T04:45:48.459Z,95421.81
2018-05-03T04:48:16.035Z,95418.36
2018-05-03T04:50:43.680Z,95420.28
2018-05-03T04:53:11.251Z,95428.75
2018-05-03T04:55:38.831Z,95430.27
2018-05-03T04:58:06.483Z,95427.13
2018-05-03T05:00:34.097Z,95422.21
2018-05-03T05:03:01.692Z,95419.06
2018-05-03T05:05:29.308Z,95420.36
2018-05-03T05:07:56.973Z,95422.84
2018-05-03T05:10:24.631Z,95418.73
2018-05-03T05:12:52.224Z,95423.09
2018-05-03T05:15:20.059Z,95430.02
2018-05-03T05:17:47.629Z,95434.06
2018-05-03T05:20:15.189Z,95437.45
2018-05-03T05:22:42.776Z,95435.12
2018-05-03T05:25:10.654Z,95442.54
2018-05-03T05:27:38.251Z,95447.38
2018-05-03T05:30:05.865Z,95455.98
2018-05-03T05:32:33.575Z,95460.27
2018-05-03T05:35:01.123Z,95461.80
2018-05-03T05:37:28.719Z,95453.30
2018-05-03T05:39:56.292Z,95463.16
2018-05-03T05:42:23.845Z,95467.01
2018-05-03T05:44:51.388Z,95466.67
2018-05-03T05:47:18.945Z,95465.63
2018-05-03T05:49:46.454Z,95471.16
2018-05-03T05:52:13.980Z,95473.87
2018-05-03T05:54:41.497Z,95480.10
2018-05-03T05:57:09.096Z,95475.34
2018-05-03T05:59:36.577Z,95483.27
2018-05-03T06:02:04.137Z,95482.34
2018-05-03T06:04:31.897Z,95482.81
2018-05-03T06:06:59.479Z,95484.89
2018-05-03T06:09:27.487Z,95485.67
2018-05-03T06:11:55.145Z,95489.31
2018-05-03T06:14:22.748Z,95487.54
2018-05-03T06:16:50.317Z,95487.37
2018-05-03T06:19:17.946Z,95489.20
2018-05-03T06:21:45.567Z,95497.66
2018-05-03T06:24:13.209Z,95486.11
2018-05-03T06:26:40.778Z,95490.59
2018-05-03T06:29:08.351Z,95498.34
2018-05-03T06:31:35.945Z,95501.75
2018-05-03T06:34:03.550Z,95503.75
2018-05-03T06:36:31.215Z,95501.80
2018-05-03T06:38:58.876Z,95505.55
2018-05-03T06:41:26.471Z,95503.48
2018-05-03T06:43:54.054Z,95494.98
2018-05-03T06:46:21.598Z,95496.16
2018-05-03T06:48:49.192Z,95497.94
2018-05-03T06:51:16.795Z,95489.80
2018-05-03T06:53:44.396Z,95485.44
2018-05-03T06:56:11.966Z,95482.25
2018-05-03T06:58:39.569Z,95485.71
2018-05-03T07:01:07.132Z,95486.92
2018-05-03T07:03:34.634Z,95483.32
2018-05-03T07:06:02.148Z,95477.66
2018-05-03T07:08:29.797Z,95476.66
2018-05-03T07:10:57.340Z,95478.91
2018-05-03T07:13:24.927Z,95481.76
2018-05-03T07:15:52.504Z,95476.73
2018-05-03T07:18:20.107Z,95481.84
2018-05-03T07:20:47.829Z,95486.50
2018-05-03T07:23:15.472Z,95488.43
2018-05-03T07:25:43.085Z,95493.80
2018-05-03T07:28:10.713Z,95497.26
2018-05-03T07:30:38.438Z,95498.56
2018-05-03T07:33:06.082Z,95500.45
2018-05-03T07:35:33.678Z,95500.27
2018-05-03T07:38:01.267Z,95495.63
2018-05-03T07:40:28.926Z,95492.33
2018-05-03T07:42:56.501Z,95497.80
2018-05-03T07:45:24.085Z,95498.39
2018-05-03T07:47:51.778Z,95501.89
2018-05-03T07:50:19.336Z,95504.33
2018-05-03T07:52:46.893Z,95509.88
2018-05-03T07:55:14.484Z,95512.64
2018-05-03T07:57:42.086Z,95502.47
2018-05-03T08:00:09.667Z,95511.52
2018-05-03T08:02:37.262Z,95513.66
2018-05-03T08:05:04.798Z,95506.54
2018-05-03T08:07:32.338Z,95505.31
2018-05-03T08:09:59.859Z,95501.61
2018-05-03T08:12:27.529Z,95497.09
2018-05-03T08:14:55.197Z,95501.03
2018-05-03T08:17:22.748Z,95499.61
2018-05-03T08:19:50.322Z,95491.09
2018-05-03T08:22:17.968Z,95487.97
2018-05-03T08:24:45.531Z,95492.59
2018-05-03T08:27:13.307Z,95497.60
2018-05-03T08:29:40.947Z,95506.02
2018-05-03T08:32:08.527Z,95505.42
2018-05-03T08:34:36.322Z,95506.35
2018-05-03T08:37:04.024Z,95506.02
2018-05-03T08:39:31.779Z,95505.13
2018-05-03T08:41:59.383Z,95511.45
2018-05-03T08:44:26.973Z,95511.23
2018-05-03T08:46:54.639Z,95517.87
2018-05-03T08:49:22.228Z,95513.83
2018-05-03T08:51:49.853Z,95513.88
2018-05-03T08:54:17.457Z,95514.52
2018-05-03T08:56:45.038Z,95514.97
2018-05-03T08:59:12.629Z,95510.94
2018-05-03T09:01:40.266Z,95508.55
2018-05-03T09:04:07.869Z,95511.55
2018-05-03T09:06:35.495Z,95510.49
2018-05-03T09:09:03.060Z,95509.05
2018-05-03T09:11:30.569Z,95513.34
2018-05-03T09:13:58.121Z,95511.06
2018-05-03T09:16:25.680Z,95522.69
2018-05-03T09:18:53.209Z,95511.89
2018-05-03T09:21:20.766Z,95511.82
2018-05-03T09:23:48.336Z,95516.22
2018-05-03T09:26:15.943Z,95519.53
2018-05-03T09:28:43.485Z,95528.60
2018-05-03T09:31:11.895Z,95529.13
2018-05-03T09:33:39.498Z,95530.84
2018-05-03T09:36:07.072Z,95529.45
2018-05-03T09:38:34.745Z,95526.14
2018-05-03T09:41:02.409Z,95512.54
2018-05-03T09:43:30.018Z,95516.17
2018-05-03T09:45:57.568Z,95517.91
2018-05-03T09:48:25.394Z,95518.86
2018-05-03T09:50:53.010Z,95521.40
2018-05-03T09:53:20.577Z,95519.53
2018-05-03T09:55:48.145Z,95518.95
2018-05-03T09:58:15.732Z,95516.20
2018-05-03T10:00:43.274Z,95516.23
2018-05-03T10:03:11.241Z,95517.06
2018-05-03T10:05:43.953Z,95516.22
2018-05-03T10:08:15.938Z,95517.32
2018-05-03T10:10:44.263Z,95517.83
2018-05-03T10:13:11.858Z,95516.13
2018-05-03T10:15:39.395Z,95520.25
2018-05-03T10:18:06.896Z,95512.52
2018-05-03T10:20:34.549Z,95518.83
2018-05-03T10:23:02.173Z,95509.30
2018-05-03T10:25:31.549Z,95512.70
2018-05-03T10:27:59.214Z,95507.13
2018-05-03T10:30:26.808Z,95508.62
2018-05-03T10:32:54.383Z,95508.19
2018-05-03T10:35:22.020Z,95498.41
2018-05-03T10:37:50.423Z,95509.78
2018-05-03T10:40:17.996Z,95502.51
2018-05-03T10:45:19.339Z,95506.92
2018-05-03T10:47:46.929Z,95508.42
2018-05-03T10:50:14.494Z,95511.27
2018-05-03T10:52:42.053Z,95506.69
2018-05-03T10:55:09.910Z,95497.77
2018-05-03T10:57:37.662Z,95498.92
2018-05-03T11:00:05.269Z,95504.90
2018-05-03T11:02:32.832Z,95496.26
2018-05-03T11:05:00.449Z,95501.59
2018-05-03T11:07:28.007Z,95498.52
2018-05-03T11:09:55.560Z,95496.55
2018-05-03T11:12:23.136Z,95493.65
2018-05-03T11:14:50.741Z,95498.38
2018-05-03T11:17:18.416Z,95495.76
2018-05-03T11:19:46.097Z,95496.64
2018-05-03T11:22:13.713Z,95496.91
2018-05-03T11:24:41.384Z,95503.89
2018-05-03T11:27:09.415Z,95496.91
2018-05-03T11:29:37.534Z,95488.98
2018-05-03T11:32:05.227Z,95488.01
2018-05-03T11:34:33.052Z,95486.02
2018-05-03T11:37:00.752Z,95482.96
2018-05-03T11:39:28.285Z,95482.46
2018-05-03T11:41:55.904Z,95481.61
2018-05-03T11:44:23.489Z,95481.80
2018-05-03T11:46:51.071Z,95486.48
2018-05-03T11:49:18.667Z,95482.84
2018-05-03T11:51:46.226Z,95481.03
2018-05-03T11:54:13.782Z,95476.02
2018-05-03T11:56:41.381Z,95473.00
2018-05-03T11:59:08.998Z,95470.74
2018-05-03T12:01:36.548Z,95470.77
2018-05-03T12:04:11.118Z,95467.17
2018-05-03T12:06:40.850Z,95465.64
2018-05-03T12:09:08.436Z,95460.77
2018-05-03T12:11:36.002Z,95464.48
2018-05-03T12:14:03.565Z,95456.35
2018-05-03T12:16:31.364Z,95465.30
2018-05-03T12:18:58.970Z,95465.99
2018-05-03T12:21:26.527Z,95457.33
2018-05-03T12:23:54.107Z,95457.80
2018-05-03T12:26:21.765Z,95456.24
2018-05-03T12:28:49.419Z,95448.22
2018-05-03T12:31:17.428Z,95445.98
2018-05-03T12:33:45.126Z,95447.17
2018-05-03T12:36:12.746Z,95441.55
2018-05-03T12:38:40.338Z,95442.45
2018-05-03T12:41:07.915Z,95446.66
2018-05-03T12:43:35.558Z,95442.31
2018-05-03T12:46:03.162Z,95444.20
2018-05-03T12:48:30.759Z,95442.09
2018-05-03T12:50:58.401Z,95436.88
2018-05-03T12:53:26.309Z,95435.28
2018-05-03T12:55:53.903Z,95437.08
2018-05-03T12:58:21.480Z,95436.30
2018-05-03T13:00:49.136Z,95436.03
2018-05-03T13:03:16.865Z,95433.34
2018-05-03T13:05:44.406Z,95436.02
2018-05-03T13:08:11.964Z,95431.75
2018-05-03T13:10:39.849Z,95432.53
2018-05-03T13:13:07.551Z,95429.25
2018-05-03T13:15:35.275Z,95419.76
2018-05-03T13:18:03.814Z,95421.88
2018-05-03T13:20:31.397Z,95425.22
2018-05-03T13:22:58.954Z,95419.34
2018-05-03T13:25:26.562Z,95421.71
2018-05-03T13:27:54.213Z,95417.84
2018-05-03T13:30:21.798Z,95424.17
2018-05-03T13:32:49.380Z,95420.80
2018-05-03T13:35:17.131Z,95422.51
2018-05-03T13:37:44.824Z,95430.98
2018-05-03T13:40:12.453Z,95428.66
2018-05-03T13:42:40.041Z,95431.57
2018-05-03T13:45:07.630Z,95423.61
2018-05-03T13:47:35.254Z,95425.22
2018-05-03T13:50:02.797Z,95428.92
2018-05-03T13:52:30.328Z,95432.27
2018-05-03T13:54:57.836Z,95438.83
2018-05-03T13:57:25.525Z,95441.64
2018-05-03T13:59:53.196Z,95441.34
2018-05-03T14:02:20.806Z,95444.22
2018-05-03T14:04:56.894Z,95440.22
2018-05-03T14:07:29.203Z,95450.30
2018-05-03T14:09:59.804Z,95446.34
2018-05-03T14:12:27.742Z,95442.59
2018-05-03T14:14:55.330Z,95445.66
2018-05-03T14:17:25.448Z,95454.07
2018-05-03T14:19:53.093Z,95447.95
2018-05-03T14:22:20.674Z,95448.04
2018-05-03T14:24:48.244Z,95451.29
2018-05-03T14:27:15.885Z,95440.20
2018-05-03T14:29:43.460Z,95448.17
2018-05-03T14:32:11.046Z,95453.22
2018-05-03T14:34:38.696Z,95452.34
2018-05-03T14:37:06.424Z,95454.95
2018-05-03T14:39:33.988Z,95461.05
2018-05-03T14:42:01.576Z,95449.16
2018-05-03T14:44:29.401Z,95456.33
2018-05-03T14:46:56.958Z,95465.34
2018-05-03T14:49:24.510Z,95458.94
2018-05-03T14:51:52.026Z,95466.18
2018-05-03T14:54:19.694Z,95473.23
2018-05-03T14:56:47.234Z,95464.71
2018-05-03T14:59:14.727Z,95465.98
2018-05-03T15:01:42.229Z,95462.61
2018-05-03T15:04:09.764Z,95463.06
2018-05-03T15:06:37.305Z,95465.17
2018-05-03T15:09:05.650Z,95466.14
2018-05-03T15:11:34.284Z,95469.94
2018-05-03T15:14:01.878Z,95475.13
2018-05-03T15:16:29.524Z,95475.11
2018-05-03T15:18:57.072Z,95474.67
2018-05-03T15:21:24.785Z,95466.32
2018-05-03T15:23:52.355Z,95461.13
2018-05-03T15:26:19.961Z,95467.38
2018-05-03T15:28:47.547Z,95469.72
2018-05-03T15:31:15.107Z,95467.85
2018-05-03T15:33:42.745Z,95464.84
2018-05-03T15:36:10.315Z,95455.41
2018-05-03T15:38:37.889Z,95453.08
2018-05-03T15:41:05.717Z,95456.02
2018-05-03T15:43:33.432Z,95453.28
2018-05-03T15:46:01.065Z,95455.09
2018-05-03T15:48:28.668Z,95453.56
2018-05-03T15:50:56.234Z,95455.44
2018-05-03T15:53:23.811Z,95466.98
2018-05-03T15:55:51.384Z,95468.20
2018-05-03T15:58:18.953Z,95473.69
2018-05-03T16:00:46.514Z,95470.23
2018-05-03T16:03:14.105Z,95465.54
2018-05-03T16:05:47.038Z,95463.98
2018-05-03T16:08:14.651Z,95461.76
2018-05-03T16:10:42.192Z,95465.80
2018-05-03T16:13:10.054Z,95465.09
2018-05-03T16:15:37.671Z,95464.51
2018-05-03T16:18:05.275Z,95463.42
2018-05-03T16:20:32.972Z,95463.67
2018-05-03T16:23:00.458Z,95463.19
2018-05-03T16:25:27.979Z,95469.80
2018-05-03T16:27:55.534Z,95463.84
2018-05-03T16:30:23.076Z,95467.19
2018-05-03T16:32:50.618Z,95470.41
2018-05-03T16:35:18.269Z,95465.16
2018-05-03T16:37:45.870Z,95467.42
2018-05-03T16:40:13.456Z,95470.02
2018-05-03T16:42:40.996Z,95468.02
2018-05-03T16:45:08.540Z,95466.09
2018-05-03T16:47:36.137Z,95471.45
2018-05-03T16:50:03.686Z,95477.83
2018-05-03T16:52:31.242Z,95477.50
2018-05-03T16:54:58.878Z,95489.49
2018-05-03T16:57:26.474Z,95490.39
2018-05-03T16:59:54.033Z,95490.52
2018-05-03T17:02:22.076Z,95496.24
2018-05-03T17:04:49.729Z,95503.53
2018-05-03T17:07:17.262Z,95509.66
2018-05-03T17:09:44.851Z,95511.19
2018-05-03T17:12:12.407Z,95512.07
2018-05-03T17:14:39.979Z,95516.38
2018-05-03T17:17:07.640Z,95516.27
2018-05-03T17:19:35.208Z,95514.35
2018-05-03T17:22:02.801Z,95518.70
2018-05-03T17:24:30.395Z,95520.50
2018-05-03T17:26:58.001Z,95527.89
2018-05-03T17:29:25.620Z,95526.52
2018-05-03T17:31:53.147Z,95528.66
2018-05-03T17:34:20.771Z,95528.36
2018-05-03T17:36:48.400Z,95531.61
2018-05-03T17:39:16.006Z,95530.77
2018-05-03T17:41:43.701Z,95541.23
2018-05-03T17:44:11.341Z,95541.05
2018-05-03T17:46:38.906Z,95537.39
2018-05-03T17:49:06.479Z,95540.72
2018-05-03T17:51:34.058Z,95557.72
2018-05-03T17:54:01.616Z,95558.72
2018-05-03T17:56:29.222Z,95568.64
2018-05-03T17:58:56.794Z,95570.33
2018-05-03T18:01:24.350Z,95575.87
2018-05-03T18:03:54.948Z,95579.78
2018-05-03T18:06:22.526Z,95583.09
2018-05-03T18:08:50.039Z,95590.88
2018-05-03T18:11:17.592Z,95594.50
2018-05-03T18:13:45.231Z,95599.31
2018-05-03T18:16:12.887Z,95606.44
2018-05-03T18:18:40.536Z,95613.66
2018-05-03T18:21:08.721Z,95624.70
2018-05-03T18:23:36.312Z,95625.38
2018-05-03T18:26:03.912Z,95640.49
2018-05-03T18:28:31.605Z,95638.56
2018-05-03T18:30:59.192Z,95644.97
2018-05-03T18:33:26.806Z,95641.20
2018-05-03T18:35:54.742Z,95639.95
2018-05-03T18:38:22.614Z,95648.03
2018-05-03T18:40:50.168Z,95663.42
2018-05-03T18:43:17.837Z,95668.56
2018-05-03T18:45:45.515Z,95679.44
2018-05-03T18:48:13.177Z,95676.05
2018-05-03T18:50:40.954Z,95679.19
2018-05-03T18:53:08.564Z,95686.04
2018-05-03T18:55:36.108Z,95689.20
2018-05-03T18:58:03.712Z,95697.69
2018-05-03T19:00:31.285Z,95692.05
2018-05-03T19:02:59.160Z,95706.91
2018-05-03T19:05:27.065Z,95709.13
2018-05-03T19:07:54.687Z,95717.28
2018-05-03T19:10:22.508Z,95709.98
2018-05-03T19:12:49.895Z,95709.00
2018-05-03T19:15:17.502Z,95715.19
2018-05-03T19:17:45.357Z,95722.38
2018-05-03T19:20:12.865Z,95722.98
2018-05-03T19:22:40.485Z,95730.34
2018-05-03T19:25:08.167Z,95729.52
2018-05-03T19:27:35.787Z,95733.61
2018-05-03T19:30:03.361Z,95735.57
2018-05-03T19:32:31.205Z,95736.52
2018-05-03T19:34:58.807Z,95741.56
2018-05-03T19:37:26.663Z,95735.37
2018-05-03T19:39:54.352Z,95743.34
2018-05-03T19:42:21.921Z,95749.88
2018-05-03T19:44:49.445Z,95751.58
2018-05-03T19:47:17.265Z,95754.66
2018-05-03T19:49:45.149Z,95751.77
2018-05-03T19:52:12.700Z,95744.01
2018-05-03T19:54:40.315Z,95740.84
2018-05-03T19:57:07.907Z,95738.77
2018-05-03T19:59:35.718Z,95750.56
2018-05-03T20:02:03.347Z,95750.11
2018-05-03T20:04:31.121Z,95755.12
2018-05-03T20:06:58.798Z,95749.13
2018-05-03T20:09:26.409Z,95752.20
2018-05-03T20:11:54.039Z,95753.83
2018-05-03T20:14:21.676Z,95754.55
2018-05-03T20:16:49.232Z,95761.70
2018-05-03T20:19:17.619Z,95758.41
2018-05-03T20:21:45.152Z,95759.23
2018-05-03T20:24:12.765Z,95763.04
2018-05-03T20:26:40.349Z,95771.73
2018-05-03T20:29:07.988Z,95777.17
2018-05-03T20:31:35.662Z,95780.79
2018-05-03T20:34:03.262Z,95767.46
2018-05-03T20:36:31.112Z,95773.42
2018-05-03T20:38:58.729Z,95772.86
2018-05-03T20:41:27.538Z,95770.44
2018-05-03T20:43:55.168Z,95763.10
2018-05-03T20:46:22.738Z,95750.61
2018-05-03T20:48:50.619Z,95762.62
2018-05-03T20:51:18.191Z,95770.33
2018-05-03T20:53:45.835Z,95772.17
2018-05-03T20:56:13.470Z,95777.94
2018-05-03T20:58:41.040Z,95771.22
2018-05-03T21:01:08.710Z,95783.02
2018-05-03T21:03:36.305Z,95769.99
2018-05-03T21:06:03.926Z,95775.41
2018-05-03T21:08:31.433Z,95787.02
2018-05-03T21:10:58.948Z,95789.36
2018-05-03T21:13:26.652Z,95787.17
2018-05-03T21:15:54.160Z,95799.19
2018-05-03T21:18:21.737Z,95791.72
2018-05-03T21:20:49.349Z,95793.09
2018-05-03T21:23:17.075Z,95785.64
2018-05-03T21:25:44.716Z,95781.42
2018-05-03T21:28:12.321Z,95790.60
2018-05-03T21:30:39.887Z,95795.30
2018-05-03T21:33:07.442Z,95801.45
2018-05-03T21:35:35.052Z,95800.69
2018-05-03T21:38:02.700Z,95804.85
2018-05-03T21:40:30.203Z,95813.33
2018-05-03T21:42:57.728Z,95802.09
2018-05-03T21:45:25.287Z,95810.98
2018-05-03T21:47:52.877Z,95815.27
2018-05-03T21:50:20.437Z,95821.18
2018-05-03T21:52:48.059Z,95833.05
2018-05-03T21:55:15.685Z,95841.70
2018-05-03T21:57:43.330Z,95847.31
2018-05-03T22:00:10.917Z,95846.93
2018-05-03T22:02:48.845Z,95856.67
2018-05-03T22:05:16.493Z,95860.29
2018-05-03T22:07:44.213Z,95858.17
2018-05-03T22:10:11.804Z,95855.86
2018-05-03T22:12:39.405Z,95852.76
2018-05-03T22:15:07.040Z,95849.76
2018-05-03T22:17:34.646Z,95849.76
2018-05-03T22:20:02.245Z,95854.91
2018-05-03T22:22:29.850Z,95854.98
2018-05-03T22:24:57.441Z,95856.38
2018-05-03T22:27:25.093Z,95863.67
2018-05-03T22:29:52.691Z,95861.76
2018-05-03T22:32:20.200Z,95864.17
2018-05-03T22:37:44.647Z,95873.05
2018-05-03T22:40:12.178Z,95872.80
2018-05-03T22:42:39.758Z,95875.33
2018-05-03T22:45:07.310Z,95874.27
2018-05-03T22:47:35.041Z,95868.75
2018-05-03T22:50:02.602Z,95870.86
2018-05-03T22:52:30.196Z,95879.42
2018-05-03T22:54:57.893Z,95882.25
2018-05-03T22:57:25.403Z,95878.84
2018-05-03T22:59:52.961Z,95873.24
2018-05-03T23:02:20.589Z,95868.64
2018-05-03T23:04:48.158Z,95872.12
2018-05-03T23:07:15.844Z,95869.48
2018-05-03T23:09:43.465Z,95869.73
2018-05-03T23:12:11.038Z,95870.95
2018-05-03T23:14:38.669Z,95880.84
2018-05-03T23:19:56.473Z,95869.80
2018-05-03T23:22:23.974Z,95870.78
2018-05-03T23:24:51.477Z,95879.51
2018-05-03T23:27:19.400Z,95883.56
2018-05-03T23:29:46.973Z,95873.48
2018-05-03T23:32:14.537Z,95872.36
2018-05-03T23:34:42.139Z,95882.41
2018-05-03T23:37:10.239Z,95875.53
2018-05-03T23:39:37.770Z,95878.53
2018-05-03T23:42:05.296Z,95877.92
2018-05-03T23:44:32.835Z,95886.75
2018-05-03T23:47:00.378Z,95888.66
2018-05-03T23:49:28.016Z,95886.98
2018-05-03T23:51:55.583Z,95884.94
2018-05-03T23:54:23.094Z,95892.30
2018-05-03T23:56:50.611Z,95886.61
2018-05-03T23:59:18.221Z,95888.42
